sensor_id;sensor_type;location;lat;lon;timestamp;P1;durP1;ratioP1;P2;durP2;ratioP2
73321;SDS011;61549;37.044;22.128;2023-02-01T00:00:21;3.28;;;1.90;;
73321;SDS011;61549;37.044;22.128;2023-02-01T00:02:47;4.30;;;2.38;;
73321;SDS011;61549;37.044;22.128;2023-02-01T00:05:13;8.20;;;4.97;;
73321;SDS011;61549;37.044;22.128;2023-02-01T00:07:39;6.43;;;4.00;;
73321;SDS011;61549;37.044;22.128;2023-02-01T00:10:05;3.50;;;2.50;;
73321;SDS011;61549;37.044;22.128;2023-02-01T00:12:32;2.50;;;2.10;;
73321;SDS011;61549;37.044;22.128;2023-02-01T00:14:58;3.30;;;2.30;;
73321;SDS011;61549;37.044;22.128;2023-02-01T00:17:24;4.22;;;2.60;;
73321;SDS011;61549;37.044;22.128;2023-02-01T00:19:50;3.90;;;2.63;;
73321;SDS011;61549;37.044;22.128;2023-02-01T00:22:16;4.05;;;2.40;;
73321;SDS011;61549;37.044;22.128;2023-02-01T00:24:42;5.13;;;3.20;;
73321;SDS011;61549;37.044;22.128;2023-02-01T00:27:07;3.83;;;2.85;;
73321;SDS011;61549;37.044;22.128;2023-02-01T00:29:33;4.30;;;2.80;;
73321;SDS011;61549;37.044;22.128;2023-02-01T00:31:59;5.43;;;3.78;;
73321;SDS011;61549;37.044;22.128;2023-02-01T00:34:25;4.03;;;2.35;;
73321;SDS011;61549;37.044;22.128;2023-02-01T00:36:54;2.88;;;2.10;;
73321;SDS011;61549;37.044;22.128;2023-02-01T00:39:19;3.53;;;2.00;;
73321;SDS011;61549;37.044;22.128;2023-02-01T00:41:45;2.30;;;1.48;;
73321;SDS011;61549;37.044;22.128;2023-02-01T00:44:12;2.33;;;1.80;;
73321;SDS011;61549;37.044;22.128;2023-02-01T00:46:39;2.67;;;1.70;;
73321;SDS011;61549;37.044;22.128;2023-02-01T00:49:05;2.30;;;1.60;;
73321;SDS011;61549;37.044;22.128;2023-02-01T00:54:03;2.88;;;1.60;;
73321;SDS011;61549;37.044;22.128;2023-02-01T00:56:29;2.45;;;1.50;;
73321;SDS011;61549;37.044;22.128;2023-02-01T00:58:55;2.35;;;1.50;;
73321;SDS011;61549;37.044;22.128;2023-02-01T01:01:22;2.13;;;1.40;;
73321;SDS011;61549;37.044;22.128;2023-02-01T01:03:55;2.00;;;1.50;;
73321;SDS011;61549;37.044;22.128;2023-02-01T01:06:23;2.50;;;1.60;;
73321;SDS011;61549;37.044;22.128;2023-02-01T01:08:54;2.35;;;1.35;;
73321;SDS011;61549;37.044;22.128;2023-02-01T01:11:25;2.10;;;1.20;;
73321;SDS011;61549;37.044;22.128;2023-02-01T01:13:53;2.08;;;1.50;;
73321;SDS011;61549;37.044;22.128;2023-02-01T01:16:21;2.30;;;1.38;;
73321;SDS011;61549;37.044;22.128;2023-02-01T01:18:48;1.45;;;1.17;;
73321;SDS011;61549;37.044;22.128;2023-02-01T01:21:15;1.42;;;1.23;;
73321;SDS011;61549;37.044;22.128;2023-02-01T01:23:41;4.07;;;1.65;;
73321;SDS011;61549;37.044;22.128;2023-02-01T01:26:09;2.05;;;1.38;;
73321;SDS011;61549;37.044;22.128;2023-02-01T01:28:38;3.92;;;1.40;;
73321;SDS011;61549;37.044;22.128;2023-02-01T01:31:07;2.92;;;1.40;;
73321;SDS011;61549;37.044;22.128;2023-02-01T01:33:33;2.20;;;1.40;;
73321;SDS011;61549;37.044;22.128;2023-02-01T01:35:59;1.77;;;1.38;;
73321;SDS011;61549;37.044;22.128;2023-02-01T01:38:25;1.90;;;1.48;;
73321;SDS011;61549;37.044;22.128;2023-02-01T01:40:51;1.77;;;1.33;;
73321;SDS011;61549;37.044;22.128;2023-02-01T01:43:19;2.20;;;1.40;;
73321;SDS011;61549;37.044;22.128;2023-02-01T01:45:47;1.95;;;1.33;;
73321;SDS011;61549;37.044;22.128;2023-02-01T01:48:25;1.83;;;1.30;;
73321;SDS011;61549;37.044;22.128;2023-02-01T01:50:57;2.08;;;1.48;;
73321;SDS011;61549;37.044;22.128;2023-02-01T01:53:40;2.33;;;1.48;;
73321;SDS011;61549;37.044;22.128;2023-02-01T01:56:16;2.05;;;1.38;;
73321;SDS011;61549;37.044;22.128;2023-02-01T01:58:43;1.30;;;1.10;;
73321;SDS011;61549;37.044;22.128;2023-02-01T02:01:09;1.90;;;1.20;;
73321;SDS011;61549;37.044;22.128;2023-02-01T02:03:44;2.55;;;1.33;;
73321;SDS011;61549;37.044;22.128;2023-02-01T02:09:12;2.20;;;1.30;;
73321;SDS011;61549;37.044;22.128;2023-02-01T02:11:39;2.10;;;1.60;;
73321;SDS011;61549;37.044;22.128;2023-02-01T02:14:06;2.53;;;1.70;;
73321;SDS011;61549;37.044;22.128;2023-02-01T02:20:04;2.40;;;1.60;;
73321;SDS011;61549;37.044;22.128;2023-02-01T02:25:28;2.30;;;1.40;;
73321;SDS011;61549;37.044;22.128;2023-02-01T02:28:42;1.70;;;1.40;;
73321;SDS011;61549;37.044;22.128;2023-02-01T02:31:46;2.40;;;1.42;;
73321;SDS011;61549;37.044;22.128;2023-02-01T02:34:48;2.30;;;1.40;;
73321;SDS011;61549;37.044;22.128;2023-02-01T02:40:04;2.92;;;1.80;;
73321;SDS011;61549;37.044;22.128;2023-02-01T02:42:42;3.65;;;1.80;;
73321;SDS011;61549;37.044;22.128;2023-02-01T02:51:20;5.47;;;2.80;;
73321;SDS011;61549;37.044;22.128;2023-02-01T02:54:13;3.88;;;2.60;;
73321;SDS011;61549;37.044;22.128;2023-02-01T02:57:11;4.63;;;3.20;;
73321;SDS011;61549;37.044;22.128;2023-02-01T03:00:05;6.35;;;3.72;;
73321;SDS011;61549;37.044;22.128;2023-02-01T03:02:58;5.68;;;3.10;;
73321;SDS011;61549;37.044;22.128;2023-02-01T03:05:47;3.30;;;2.30;;
73321;SDS011;61549;37.044;22.128;2023-02-01T03:08:16;2.25;;;1.50;;
73321;SDS011;61549;37.044;22.128;2023-02-01T03:10:52;2.42;;;1.60;;
73321;SDS011;61549;37.044;22.128;2023-02-01T03:13:24;1.92;;;1.48;;
73321;SDS011;61549;37.044;22.128;2023-02-01T03:18:23;2.17;;;1.40;;
73321;SDS011;61549;37.044;22.128;2023-02-01T03:20:58;2.72;;;1.67;;
73321;SDS011;61549;37.044;22.128;2023-02-01T03:23:31;2.75;;;1.50;;
73321;SDS011;61549;37.044;22.128;2023-02-01T03:26:00;2.88;;;1.30;;
73321;SDS011;61549;37.044;22.128;2023-02-01T03:28:32;2.08;;;1.40;;
73321;SDS011;61549;37.044;22.128;2023-02-01T03:31:00;2.38;;;1.20;;
73321;SDS011;61549;37.044;22.128;2023-02-01T03:33:26;2.00;;;1.40;;
73321;SDS011;61549;37.044;22.128;2023-02-01T03:46:27;2.05;;;1.65;;
73321;SDS011;61549;37.044;22.128;2023-02-01T03:49:00;2.28;;;1.50;;
73321;SDS011;61549;37.044;22.128;2023-02-01T03:51:28;2.13;;;1.50;;
73321;SDS011;61549;37.044;22.128;2023-02-01T03:53:56;2.08;;;1.52;;
73321;SDS011;61549;37.044;22.128;2023-02-01T03:56:23;2.53;;;1.52;;
73321;SDS011;61549;37.044;22.128;2023-02-01T03:58:51;2.30;;;1.70;;
73321;SDS011;61549;37.044;22.128;2023-02-01T04:01:28;1.67;;;1.48;;
73321;SDS011;61549;37.044;22.128;2023-02-01T04:03:55;2.78;;;1.75;;
73321;SDS011;61549;37.044;22.128;2023-02-01T04:06:22;2.03;;;1.30;;
73321;SDS011;61549;37.044;22.128;2023-02-01T04:08:49;3.00;;;1.48;;
73321;SDS011;61549;37.044;22.128;2023-02-01T04:11:17;2.22;;;1.27;;
73321;SDS011;61549;37.044;22.128;2023-02-01T04:13:43;3.42;;;1.40;;
73321;SDS011;61549;37.044;22.128;2023-02-01T04:16:09;2.75;;;1.48;;
73321;SDS011;61549;37.044;22.128;2023-02-01T04:18:35;2.05;;;1.30;;
73321;SDS011;61549;37.044;22.128;2023-02-01T04:21:01;1.83;;;1.30;;
73321;SDS011;61549;37.044;22.128;2023-02-01T04:23:28;2.58;;;1.30;;
73321;SDS011;61549;37.044;22.128;2023-02-01T04:25:58;2.67;;;1.40;;
73321;SDS011;61549;37.044;22.128;2023-02-01T04:28:25;1.95;;;1.40;;
73321;SDS011;61549;37.044;22.128;2023-02-01T04:30:57;2.47;;;1.35;;
73321;SDS011;61549;37.044;22.128;2023-02-01T04:33:23;3.33;;;1.50;;
73321;SDS011;61549;37.044;22.128;2023-02-01T04:35:49;2.15;;;1.50;;
73321;SDS011;61549;37.044;22.128;2023-02-01T04:38:15;3.05;;;1.50;;
73321;SDS011;61549;37.044;22.128;2023-02-01T04:40:41;1.48;;;1.13;;
73321;SDS011;61549;37.044;22.128;2023-02-01T04:43:07;1.38;;;1.20;;
73321;SDS011;61549;37.044;22.128;2023-02-01T04:45:33;1.83;;;1.27;;
73321;SDS011;61549;37.044;22.128;2023-02-01T04:47:59;1.92;;;1.38;;
73321;SDS011;61549;37.044;22.128;2023-02-01T04:50:24;1.92;;;1.08;;
73321;SDS011;61549;37.044;22.128;2023-02-01T04:52:50;1.77;;;1.10;;
73321;SDS011;61549;37.044;22.128;2023-02-01T04:55:16;1.98;;;1.23;;
73321;SDS011;61549;37.044;22.128;2023-02-01T04:57:42;2.53;;;1.38;;
73321;SDS011;61549;37.044;22.128;2023-02-01T05:00:09;1.60;;;1.38;;
73321;SDS011;61549;37.044;22.128;2023-02-01T05:02:41;2.95;;;1.73;;
73321;SDS011;61549;37.044;22.128;2023-02-01T05:05:07;6.07;;;4.28;;
73321;SDS011;61549;37.044;22.128;2023-02-01T05:07:39;3.92;;;3.22;;
73321;SDS011;61549;37.044;22.128;2023-02-01T05:10:05;2.92;;;2.00;;
73321;SDS011;61549;37.044;22.128;2023-02-01T05:12:32;3.08;;;2.10;;
73321;SDS011;61549;37.044;22.128;2023-02-01T05:15:16;2.63;;;2.10;;
73321;SDS011;61549;37.044;22.128;2023-02-01T05:17:42;2.47;;;1.38;;
73321;SDS011;61549;37.044;22.128;2023-02-01T05:20:08;2.17;;;1.27;;
73321;SDS011;61549;37.044;22.128;2023-02-01T05:22:34;2.97;;;1.27;;
73321;SDS011;61549;37.044;22.128;2023-02-01T05:25:00;1.42;;;1.10;;
73321;SDS011;61549;37.044;22.128;2023-02-01T05:27:28;1.10;;;0.90;;
73321;SDS011;61549;37.044;22.128;2023-02-01T05:29:55;2.50;;;1.60;;
73321;SDS011;61549;37.044;22.128;2023-02-01T05:32:21;2.88;;;1.50;;
73321;SDS011;61549;37.044;22.128;2023-02-01T05:34:47;4.05;;;1.58;;
73321;SDS011;61549;37.044;22.128;2023-02-01T05:37:12;1.73;;;1.27;;
73321;SDS011;61549;37.044;22.128;2023-02-01T05:39:39;3.53;;;1.45;;
73321;SDS011;61549;37.044;22.128;2023-02-01T05:42:05;2.20;;;1.38;;
73321;SDS011;61549;37.044;22.128;2023-02-01T05:44:40;2.22;;;1.33;;
73321;SDS011;61549;37.044;22.128;2023-02-01T05:50:28;1.90;;;1.10;;
73321;SDS011;61549;37.044;22.128;2023-02-01T05:52:54;2.25;;;1.13;;
73321;SDS011;61549;37.044;22.128;2023-02-01T05:55:19;1.73;;;0.90;;
73321;SDS011;61549;37.044;22.128;2023-02-01T05:57:45;3.30;;;1.02;;
73321;SDS011;61549;37.044;22.128;2023-02-01T06:00:11;2.28;;;0.95;;
73321;SDS011;61549;37.044;22.128;2023-02-01T06:02:39;1.98;;;1.05;;
73321;SDS011;61549;37.044;22.128;2023-02-01T06:05:11;1.98;;;1.08;;
73321;SDS011;61549;37.044;22.128;2023-02-01T06:07:37;2.17;;;1.10;;
73321;SDS011;61549;37.044;22.128;2023-02-01T06:10:03;2.30;;;1.30;;
73321;SDS011;61549;37.044;22.128;2023-02-01T06:12:29;3.42;;;1.50;;
73321;SDS011;61549;37.044;22.128;2023-02-01T06:14:55;2.83;;;1.50;;
73321;SDS011;61549;37.044;22.128;2023-02-01T06:17:21;1.60;;;1.10;;
73321;SDS011;61549;37.044;22.128;2023-02-01T06:19:47;1.60;;;1.00;;
73321;SDS011;61549;37.044;22.128;2023-02-01T06:22:13;2.55;;;1.08;;
73321;SDS011;61549;37.044;22.128;2023-02-01T06:24:39;2.78;;;1.10;;
73321;SDS011;61549;37.044;22.128;2023-02-01T06:27:06;2.17;;;1.00;;
73321;SDS011;61549;37.044;22.128;2023-02-01T06:29:32;30.30;;;19.88;;
73321;SDS011;61549;37.044;22.128;2023-02-01T06:31:58;12.30;;;8.98;;
73321;SDS011;61549;37.044;22.128;2023-02-01T06:34:24;10.10;;;7.47;;
73321;SDS011;61549;37.044;22.128;2023-02-01T06:36:52;13.13;;;9.30;;
73321;SDS011;61549;37.044;22.128;2023-02-01T06:39:19;17.73;;;10.18;;
73321;SDS011;61549;37.044;22.128;2023-02-01T06:41:46;10.13;;;7.10;;
73321;SDS011;61549;37.044;22.128;2023-02-01T06:44:13;6.90;;;4.82;;
73321;SDS011;61549;37.044;22.128;2023-02-01T06:46:39;8.95;;;5.28;;
73321;SDS011;61549;37.044;22.128;2023-02-01T06:49:05;7.68;;;4.40;;
73321;SDS011;61549;37.044;22.128;2023-02-01T06:51:31;6.30;;;4.35;;
73321;SDS011;61549;37.044;22.128;2023-02-01T06:53:57;8.85;;;5.80;;
73321;SDS011;61549;37.044;22.128;2023-02-01T06:56:23;11.63;;;5.97;;
73321;SDS011;61549;37.044;22.128;2023-02-01T06:58:49;8.98;;;5.85;;
73321;SDS011;61549;37.044;22.128;2023-02-01T07:01:15;6.53;;;4.85;;
73321;SDS011;61549;37.044;22.128;2023-02-01T07:03:41;8.00;;;4.32;;
73321;SDS011;61549;37.044;22.128;2023-02-01T07:06:07;8.93;;;5.43;;
73321;SDS011;61549;37.044;22.128;2023-02-01T07:11:53;7.72;;;4.70;;
73321;SDS011;61549;37.044;22.128;2023-02-01T07:17:41;11.02;;;6.65;;
73321;SDS011;61549;37.044;22.128;2023-02-01T07:20:07;9.10;;;6.60;;
73321;SDS011;61549;37.044;22.128;2023-02-01T07:22:34;7.97;;;5.47;;
73321;SDS011;61549;37.044;22.128;2023-02-01T07:25:00;10.23;;;6.63;;
73321;SDS011;61549;37.044;22.128;2023-02-01T07:27:26;11.60;;;7.07;;
73321;SDS011;61549;37.044;22.128;2023-02-01T07:29:52;10.35;;;6.75;;
73321;SDS011;61549;37.044;22.128;2023-02-01T07:32:18;9.88;;;6.93;;
73321;SDS011;61549;37.044;22.128;2023-02-01T07:34:44;13.43;;;7.82;;
73321;SDS011;61549;37.044;22.128;2023-02-01T07:37:10;12.50;;;8.80;;
73321;SDS011;61549;37.044;22.128;2023-02-01T07:39:36;11.90;;;8.07;;
73321;SDS011;61549;37.044;22.128;2023-02-01T07:42:02;12.18;;;8.77;;
73321;SDS011;61549;37.044;22.128;2023-02-01T07:44:28;11.73;;;8.13;;
73321;SDS011;61549;37.044;22.128;2023-02-01T07:46:53;11.55;;;7.97;;
73321;SDS011;61549;37.044;22.128;2023-02-01T07:49:19;11.02;;;8.18;;
73321;SDS011;61549;37.044;22.128;2023-02-01T07:51:45;12.27;;;8.95;;
73321;SDS011;61549;37.044;22.128;2023-02-01T07:54:11;11.10;;;7.90;;
73321;SDS011;61549;37.044;22.128;2023-02-01T07:56:37;11.68;;;8.25;;
73321;SDS011;61549;37.044;22.128;2023-02-01T07:59:03;14.40;;;8.80;;
73321;SDS011;61549;37.044;22.128;2023-02-01T08:01:28;11.10;;;8.27;;
73321;SDS011;61549;37.044;22.128;2023-02-01T08:03:56;9.18;;;6.78;;
73321;SDS011;61549;37.044;22.128;2023-02-01T08:06:28;9.10;;;7.03;;
73321;SDS011;61549;37.044;22.128;2023-02-01T08:08:57;10.88;;;8.68;;
73321;SDS011;61549;37.044;22.128;2023-02-01T08:11:24;9.98;;;7.30;;
73321;SDS011;61549;37.044;22.128;2023-02-01T08:13:51;8.60;;;6.70;;
73321;SDS011;61549;37.044;22.128;2023-02-01T08:16:17;11.48;;;7.65;;
73321;SDS011;61549;37.044;22.128;2023-02-01T08:18:44;10.63;;;7.80;;
73321;SDS011;61549;37.044;22.128;2023-02-01T08:21:13;11.43;;;8.20;;
73321;SDS011;61549;37.044;22.128;2023-02-01T08:23:43;10.40;;;7.65;;
73321;SDS011;61549;37.044;22.128;2023-02-01T08:26:23;9.15;;;6.97;;
73321;SDS011;61549;37.044;22.128;2023-02-01T08:28:52;10.38;;;7.13;;
73321;SDS011;61549;37.044;22.128;2023-02-01T08:31:21;10.10;;;7.88;;
73321;SDS011;61549;37.044;22.128;2023-02-01T08:33:49;12.65;;;8.75;;
73321;SDS011;61549;37.044;22.128;2023-02-01T08:36:17;11.15;;;7.78;;
73321;SDS011;61549;37.044;22.128;2023-02-01T08:38:43;10.52;;;6.93;;
73321;SDS011;61549;37.044;22.128;2023-02-01T08:41:11;10.45;;;6.90;;
73321;SDS011;61549;37.044;22.128;2023-02-01T08:43:41;10.95;;;6.60;;
73321;SDS011;61549;37.044;22.128;2023-02-01T08:46:07;9.85;;;6.38;;
73321;SDS011;61549;37.044;22.128;2023-02-01T08:48:34;9.00;;;6.28;;
73321;SDS011;61549;37.044;22.128;2023-02-01T08:51:02;8.52;;;6.57;;
73321;SDS011;61549;37.044;22.128;2023-02-01T08:56:54;9.23;;;6.40;;
73321;SDS011;61549;37.044;22.128;2023-02-01T08:59:21;8.10;;;6.05;;
73321;SDS011;61549;37.044;22.128;2023-02-01T09:01:47;8.35;;;5.93;;
73321;SDS011;61549;37.044;22.128;2023-02-01T09:04:13;8.20;;;6.40;;
73321;SDS011;61549;37.044;22.128;2023-02-01T09:06:40;8.40;;;5.60;;
73321;SDS011;61549;37.044;22.128;2023-02-01T09:09:06;8.60;;;5.72;;
73321;SDS011;61549;37.044;22.128;2023-02-01T09:11:32;8.95;;;6.60;;
73321;SDS011;61549;37.044;22.128;2023-02-01T09:14:00;11.40;;;8.75;;
73321;SDS011;61549;37.044;22.128;2023-02-01T09:16:28;10.73;;;8.05;;
73321;SDS011;61549;37.044;22.128;2023-02-01T09:18:54;11.57;;;7.80;;
73321;SDS011;61549;37.044;22.128;2023-02-01T09:21:20;9.57;;;6.60;;
73321;SDS011;61549;37.044;22.128;2023-02-01T09:23:46;13.90;;;6.43;;
73321;SDS011;61549;37.044;22.128;2023-02-01T09:26:13;10.40;;;7.43;;
73321;SDS011;61549;37.044;22.128;2023-02-01T09:28:39;12.35;;;7.30;;
73321;SDS011;61549;37.044;22.128;2023-02-01T09:31:05;10.13;;;6.50;;
73321;SDS011;61549;37.044;22.128;2023-02-01T09:33:37;9.65;;;7.28;;
73321;SDS011;61549;37.044;22.128;2023-02-01T09:36:05;10.48;;;7.32;;
73321;SDS011;61549;37.044;22.128;2023-02-01T09:38:31;10.07;;;7.45;;
73321;SDS011;61549;37.044;22.128;2023-02-01T09:40:57;13.90;;;8.02;;
73321;SDS011;61549;37.044;22.128;2023-02-01T09:43:39;10.75;;;7.20;;
73321;SDS011;61549;37.044;22.128;2023-02-01T09:46:24;8.25;;;6.60;;
73321;SDS011;61549;37.044;22.128;2023-02-01T09:48:53;8.68;;;6.38;;
73321;SDS011;61549;37.044;22.128;2023-02-01T09:51:32;10.35;;;7.55;;
73321;SDS011;61549;37.044;22.128;2023-02-01T09:54:09;7.82;;;5.50;;
73321;SDS011;61549;37.044;22.128;2023-02-01T09:56:46;9.05;;;5.70;;
73321;SDS011;61549;37.044;22.128;2023-02-01T09:59:41;9.65;;;5.80;;
73321;SDS011;61549;37.044;22.128;2023-02-01T10:02:14;7.45;;;5.70;;
73321;SDS011;61549;37.044;22.128;2023-02-01T10:04:49;8.43;;;6.55;;
73321;SDS011;61549;37.044;22.128;2023-02-01T10:28:49;15.82;;;10.05;;
73321;SDS011;61549;37.044;22.128;2023-02-01T10:31:20;9.40;;;7.85;;
73321;SDS011;61549;37.044;22.128;2023-02-01T10:33:51;5.80;;;4.80;;
73321;SDS011;61549;37.044;22.128;2023-02-01T10:36:21;6.28;;;5.07;;
73321;SDS011;61549;37.044;22.128;2023-02-01T10:38:53;5.47;;;4.70;;
73321;SDS011;61549;37.044;22.128;2023-02-01T10:41:22;6.88;;;4.40;;
73321;SDS011;61549;37.044;22.128;2023-02-01T10:43:53;6.80;;;4.97;;
73321;SDS011;61549;37.044;22.128;2023-02-01T10:46:25;5.47;;;3.90;;
73321;SDS011;61549;37.044;22.128;2023-02-01T10:48:55;6.10;;;4.63;;
73321;SDS011;61549;37.044;22.128;2023-02-01T10:51:26;7.43;;;5.35;;
73321;SDS011;61549;37.044;22.128;2023-02-01T10:54:19;4.95;;;4.22;;
73321;SDS011;61549;37.044;22.128;2023-02-01T10:56:56;4.85;;;3.78;;
73321;SDS011;61549;37.044;22.128;2023-02-01T10:59:27;5.97;;;4.70;;
73321;SDS011;61549;37.044;22.128;2023-02-01T11:01:59;4.25;;;3.42;;
73321;SDS011;61549;37.044;22.128;2023-02-01T11:04:27;6.90;;;4.43;;
73321;SDS011;61549;37.044;22.128;2023-02-01T11:09:32;5.38;;;3.38;;
73321;SDS011;61549;37.044;22.128;2023-02-01T11:12:04;6.72;;;4.90;;
73321;SDS011;61549;37.044;22.128;2023-02-01T11:14:54;4.43;;;2.60;;
73321;SDS011;61549;37.044;22.128;2023-02-01T11:17:26;2.58;;;2.10;;
73321;SDS011;61549;37.044;22.128;2023-02-01T11:20:01;4.05;;;2.80;;
73321;SDS011;61549;37.044;22.128;2023-02-01T11:22:31;5.15;;;3.88;;
73321;SDS011;61549;37.044;22.128;2023-02-01T11:24:57;3.47;;;2.80;;
73321;SDS011;61549;37.044;22.128;2023-02-01T11:27:24;4.85;;;3.83;;
73321;SDS011;61549;37.044;22.128;2023-02-01T11:29:56;4.35;;;3.15;;
73321;SDS011;61549;37.044;22.128;2023-02-01T11:32:26;4.90;;;3.50;;
73321;SDS011;61549;37.044;22.128;2023-02-01T11:35:04;4.85;;;3.60;;
73321;SDS011;61549;37.044;22.128;2023-02-01T11:37:36;3.97;;;2.97;;
73321;SDS011;61549;37.044;22.128;2023-02-01T11:40:22;4.82;;;3.65;;
73321;SDS011;61549;37.044;22.128;2023-02-01T11:43:01;5.75;;;4.10;;
73321;SDS011;61549;37.044;22.128;2023-02-01T11:45:54;4.72;;;3.30;;
73321;SDS011;61549;37.044;22.128;2023-02-01T11:48:23;5.22;;;3.50;;
73321;SDS011;61549;37.044;22.128;2023-02-01T12:05:04;4.60;;;3.38;;
73321;SDS011;61549;37.044;22.128;2023-02-01T12:13:31;7.03;;;4.25;;
73321;SDS011;61549;37.044;22.128;2023-02-01T12:18:42;8.35;;;6.30;;
73321;SDS011;61549;37.044;22.128;2023-02-01T12:24:16;4.70;;;4.00;;
73321;SDS011;61549;37.044;22.128;2023-02-01T12:29:52;4.38;;;3.70;;
73321;SDS011;61549;37.044;22.128;2023-02-01T12:35:33;5.55;;;3.40;;
73321;SDS011;61549;37.044;22.128;2023-02-01T12:40:34;4.43;;;3.30;;
73321;SDS011;61549;37.044;22.128;2023-02-01T12:43:38;7.45;;;3.10;;
73321;SDS011;61549;37.044;22.128;2023-02-01T12:48:47;5.53;;;4.20;;
73321;SDS011;61549;37.044;22.128;2023-02-01T12:51:20;7.90;;;5.30;;
73321;SDS011;61549;37.044;22.128;2023-02-01T12:59:16;5.80;;;4.20;;
73321;SDS011;61549;37.044;22.128;2023-02-01T13:02:19;5.47;;;3.92;;
73321;SDS011;61549;37.044;22.128;2023-02-01T13:05:14;5.55;;;4.20;;
73321;SDS011;61549;37.044;22.128;2023-02-01T13:07:43;4.53;;;3.40;;
73321;SDS011;61549;37.044;22.128;2023-02-01T13:10:45;5.97;;;4.10;;
73321;SDS011;61549;37.044;22.128;2023-02-01T13:15:44;5.93;;;4.03;;
73321;SDS011;61549;37.044;22.128;2023-02-01T13:18:16;5.65;;;4.30;;
73321;SDS011;61549;37.044;22.128;2023-02-01T13:23:27;5.32;;;3.53;;
73321;SDS011;61549;37.044;22.128;2023-02-01T13:25:59;6.10;;;4.00;;
73321;SDS011;61549;37.044;22.128;2023-02-01T13:36:20;5.38;;;4.07;;
73321;SDS011;61549;37.044;22.128;2023-02-01T13:41:59;5.45;;;4.10;;
73321;SDS011;61549;37.044;22.128;2023-02-01T13:44:27;8.00;;;5.63;;
73321;SDS011;61549;37.044;22.128;2023-02-01T13:47:02;5.20;;;3.90;;
73321;SDS011;61549;37.044;22.128;2023-02-01T13:49:37;6.18;;;4.43;;
73321;SDS011;61549;37.044;22.128;2023-02-01T13:52:04;7.32;;;5.20;;
73321;SDS011;61549;37.044;22.128;2023-02-01T13:54:31;9.13;;;6.22;;
73321;SDS011;61549;37.044;22.128;2023-02-01T13:57:06;4.95;;;4.10;;
73321;SDS011;61549;37.044;22.128;2023-02-01T14:00:06;10.05;;;6.28;;
73321;SDS011;61549;37.044;22.128;2023-02-01T14:03:09;5.85;;;4.20;;
73321;SDS011;61549;37.044;22.128;2023-02-01T14:13:31;6.95;;;5.25;;
73321;SDS011;61549;37.044;22.128;2023-02-01T14:26:40;9.48;;;6.43;;
73321;SDS011;61549;37.044;22.128;2023-02-01T14:32:00;9.00;;;8.10;;
73321;SDS011;61549;37.044;22.128;2023-02-01T14:34:36;6.07;;;4.90;;
73321;SDS011;61549;37.044;22.128;2023-02-01T14:37:10;7.10;;;4.75;;
73321;SDS011;61549;37.044;22.128;2023-02-01T15:06:46;10.18;;;7.03;;
73321;SDS011;61549;37.044;22.128;2023-02-01T15:09:32;10.63;;;8.18;;
73321;SDS011;61549;37.044;22.128;2023-02-01T15:14:28;18.48;;;12.82;;
73321;SDS011;61549;37.044;22.128;2023-02-01T15:16:56;16.88;;;11.50;;
73321;SDS011;61549;37.044;22.128;2023-02-01T15:19:23;33.75;;;22.25;;
73321;SDS011;61549;37.044;22.128;2023-02-01T15:21:52;32.38;;;22.00;;
73321;SDS011;61549;37.044;22.128;2023-02-01T15:24:23;32.00;;;21.92;;
73321;SDS011;61549;37.044;22.128;2023-02-01T15:26:51;26.63;;;18.20;;
73321;SDS011;61549;37.044;22.128;2023-02-01T15:29:18;17.75;;;14.07;;
73321;SDS011;61549;37.044;22.128;2023-02-01T15:31:50;17.08;;;13.43;;
73321;SDS011;61549;37.044;22.128;2023-02-01T15:34:18;18.35;;;13.77;;
73321;SDS011;61549;37.044;22.128;2023-02-01T15:36:45;23.98;;;17.88;;
73321;SDS011;61549;37.044;22.128;2023-02-01T15:41:47;21.83;;;15.38;;
73321;SDS011;61549;37.044;22.128;2023-02-01T15:46:53;20.42;;;15.80;;
73321;SDS011;61549;37.044;22.128;2023-02-01T15:49:29;19.30;;;15.35;;
73321;SDS011;61549;37.044;22.128;2023-02-01T15:51:58;22.15;;;15.77;;
73321;SDS011;61549;37.044;22.128;2023-02-01T15:54:32;20.67;;;15.45;;
73321;SDS011;61549;37.044;22.128;2023-02-01T16:04:03;29.63;;;20.75;;
73321;SDS011;61549;37.044;22.128;2023-02-01T16:06:44;22.50;;;14.82;;
73321;SDS011;61549;37.044;22.128;2023-02-01T16:09:15;18.13;;;12.35;;
73321;SDS011;61549;37.044;22.128;2023-02-01T16:11:48;24.13;;;16.05;;
73321;SDS011;61549;37.044;22.128;2023-02-01T16:14:14;24.38;;;16.63;;
73321;SDS011;61549;37.044;22.128;2023-02-01T16:16:40;37.35;;;24.45;;
73321;SDS011;61549;37.044;22.128;2023-02-01T16:19:07;62.08;;;40.42;;
73321;SDS011;61549;37.044;22.128;2023-02-01T16:21:33;52.35;;;31.17;;
73321;SDS011;61549;37.044;22.128;2023-02-01T16:24:00;88.10;;;49.08;;
73321;SDS011;61549;37.044;22.128;2023-02-01T16:26:29;72.95;;;43.70;;
73321;SDS011;61549;37.044;22.128;2023-02-01T16:28:56;84.28;;;52.47;;
73321;SDS011;61549;37.044;22.128;2023-02-01T16:31:26;57.47;;;35.58;;
73321;SDS011;61549;37.044;22.128;2023-02-01T16:33:54;58.28;;;36.90;;
73321;SDS011;61549;37.044;22.128;2023-02-01T16:36:20;42.33;;;25.88;;
73321;SDS011;61549;37.044;22.128;2023-02-01T16:38:47;30.65;;;18.88;;
73321;SDS011;61549;37.044;22.128;2023-02-01T16:41:15;20.83;;;14.02;;
73321;SDS011;61549;37.044;22.128;2023-02-01T16:43:42;19.65;;;14.15;;
73321;SDS011;61549;37.044;22.128;2023-02-01T16:46:19;20.08;;;13.70;;
73321;SDS011;61549;37.044;22.128;2023-02-01T16:48:59;20.67;;;14.02;;
73321;SDS011;61549;37.044;22.128;2023-02-01T16:51:27;18.48;;;12.30;;
73321;SDS011;61549;37.044;22.128;2023-02-01T16:53:57;21.98;;;15.52;;
73321;SDS011;61549;37.044;22.128;2023-02-01T16:56:30;24.50;;;17.52;;
73321;SDS011;61549;37.044;22.128;2023-02-01T16:58:57;24.48;;;17.35;;
73321;SDS011;61549;37.044;22.128;2023-02-01T17:01:24;25.08;;;17.58;;
73321;SDS011;61549;37.044;22.128;2023-02-01T17:03:50;20.88;;;14.13;;
73321;SDS011;61549;37.044;22.128;2023-02-01T17:06:18;17.73;;;13.05;;
73321;SDS011;61549;37.044;22.128;2023-02-01T17:08:50;17.88;;;12.75;;
73321;SDS011;61549;37.044;22.128;2023-02-01T17:11:18;18.08;;;13.85;;
73321;SDS011;61549;37.044;22.128;2023-02-01T17:13:44;17.02;;;13.00;;
73321;SDS011;61549;37.044;22.128;2023-02-01T17:16:30;15.63;;;12.30;;
73321;SDS011;61549;37.044;22.128;2023-02-01T17:19:04;14.35;;;11.00;;
73321;SDS011;61549;37.044;22.128;2023-02-01T17:21:40;14.68;;;10.98;;
73321;SDS011;61549;37.044;22.128;2023-02-01T17:24:14;22.67;;;15.85;;
73321;SDS011;61549;37.044;22.128;2023-02-01T17:26:43;32.85;;;22.35;;
73321;SDS011;61549;37.044;22.128;2023-02-01T17:29:10;54.50;;;32.10;;
73321;SDS011;61549;37.044;22.128;2023-02-01T17:31:38;35.53;;;24.08;;
73321;SDS011;61549;37.044;22.128;2023-02-01T17:34:06;21.33;;;14.57;;
73321;SDS011;61549;37.044;22.128;2023-02-01T17:36:33;22.63;;;13.50;;
73321;SDS011;61549;37.044;22.128;2023-02-01T17:39:00;24.98;;;15.65;;
73321;SDS011;61549;37.044;22.128;2023-02-01T17:41:27;20.15;;;13.57;;
73321;SDS011;61549;37.044;22.128;2023-02-01T17:43:53;13.15;;;9.43;;
73321;SDS011;61549;37.044;22.128;2023-02-01T17:46:19;12.77;;;8.32;;
73321;SDS011;61549;37.044;22.128;2023-02-01T17:48:51;12.95;;;8.90;;
73321;SDS011;61549;37.044;22.128;2023-02-01T17:51:22;22.75;;;15.60;;
73321;SDS011;61549;37.044;22.128;2023-02-01T17:53:49;19.95;;;15.32;;
73321;SDS011;61549;37.044;22.128;2023-02-01T17:56:16;19.30;;;14.73;;
73321;SDS011;61549;37.044;22.128;2023-02-01T17:58:44;16.52;;;10.32;;